To NAV CANADA Home Page Login to a new session Search on AWWS site Disclaimer Vers la page française équivalente Tips FAQ What's new on the site To the Forecasts and Observations / NOTAM section To "File a Flight Plan" website Publications and other links Update of the User's profile FIC Telephone Numbers My Weather Data Folder Route Weather Data Regional Weather Data Local Weather Data To the Forecasts and Observations / NOTAM section
Request Generated 10/19/2018 at 15:27:11 UTC . Weather information available at that time is displayed.

METAR/TAF

SWIFT CURRENT/SK    (show WxCam)

METAR CYYN 191500Z AUTO 25011KT 9SM CLR 01/M03 A3026 RMK SLP270=
METAR CYYN 191400Z AUTO 25011KT 9SM CLR M01/M03 A3024 RMK SLP265=
METAR CYYN 191300Z AUTO 26008KT 9SM CLR M00/M04 A3023 RMK SLP260=

TAF CYYN 191138Z 1912/1924 29008KT P6SM SKC
BECMG 1913/1915 29015KT
BECMG 1918/1920 32018G28KT
RMK FCST BASED ON AUTO OBS. NXT FCST BY 191800Z=
Your time UTC time
Weather data provided by Environment Canada and NAV CANADA